createdAt,value
2022-10-22T00:07:30.009Z,14.1
2022-10-22T00:47:32.167Z,14.1
2022-10-22T01:17:33.510Z,14
2022-10-22T02:17:36.822Z,14
2022-10-22T02:27:37.684Z,13.7
2022-10-22T02:37:38.402Z,13.4
2022-10-22T02:57:39.245Z,13
2022-10-22T03:57:42.675Z,13.2
2022-10-22T04:07:43.104Z,13.3
2022-10-22T04:17:43.345Z,13.6
2022-10-22T04:27:43.440Z,14
2022-10-22T04:37:43.769Z,14
2022-10-22T04:47:44.484Z,14
2022-10-22T04:57:45.270Z,13.9
2022-10-22T05:07:45.404Z,14.1
2022-10-22T05:17:46.240Z,14.3
2022-10-22T05:27:46.436Z,14.3
2022-10-22T05:37:47.522Z,14.3
2022-10-22T05:47:47.945Z,14.3
2022-10-22T05:57:47.990Z,14.3
2022-10-22T06:07:48.711Z,14.1
2022-10-22T06:17:49.288Z,13.9
2022-10-22T06:27:49.403Z,13.9
2022-10-22T06:37:49.830Z,13.9
2022-10-22T06:47:49.946Z,14
2022-10-22T06:57:50.265Z,14.2
2022-10-22T07:07:50.772Z,14.4
2022-10-22T07:17:51.389Z,14.7
2022-10-22T07:27:52.066Z,14.7
2022-10-22T07:37:52.520Z,14.6
2022-10-22T07:47:53.298Z,15
2022-10-22T07:57:54.007Z,15.7
2022-10-22T08:07:54.949Z,16.5
2022-10-22T08:17:55.578Z,16.1
2022-10-22T08:27:55.815Z,16.3
2022-10-22T08:37:56.414Z,16.4
2022-10-22T08:47:56.617Z,16.4
2022-10-22T08:57:57.573Z,16.2
2022-10-22T09:07:58.505Z,16.2
2022-10-22T09:28:00.352Z,16.4
2022-10-22T09:38:00.847Z,16.3
2022-10-22T09:48:02.277Z,16.5
2022-10-22T09:58:02.015Z,16.6
2022-10-22T10:08:02.904Z,16.5
2022-10-22T10:18:03.796Z,16.5
2022-10-22T10:28:04.823Z,16.4
2022-10-22T10:38:05.702Z,16.4
2022-10-22T10:48:05.774Z,16.5
2022-10-22T10:58:05.983Z,16.5
2022-10-22T11:08:06.497Z,16.8
2022-10-22T11:18:07.121Z,17.4
2022-10-22T11:28:11.094Z,17.4
2022-10-22T11:38:08.199Z,17.3
2022-10-22T11:48:09.082Z,17.2
2022-10-22T11:58:09.242Z,17.3
2022-10-22T12:08:13.388Z,17.1
2022-10-22T12:28:10.328Z,17.3
2022-10-22T12:58:12.053Z,16.9
2022-10-22T13:08:13.155Z,17
2022-10-22T13:18:13.711Z,17
2022-10-22T13:28:14.518Z,17.1
2022-10-22T13:38:15.427Z,16.9
2022-10-22T13:58:21.589Z,16.6
2022-10-22T14:08:21.705Z,16.7
2022-10-22T14:38:23.231Z,17
2022-10-22T14:48:23.351Z,17
2022-10-22T14:58:23.560Z,17
2022-10-22T15:08:24.278Z,16.7
2022-10-22T15:18:25.269Z,16.4
2022-10-22T15:38:26.358Z,16.3
2022-10-22T15:48:27.072Z,16.3
2022-10-22T15:58:27.840Z,16
2022-10-22T16:18:28.968Z,15.4
2022-10-22T16:28:29.336Z,15
2022-10-22T16:38:29.979Z,14.7
2022-10-22T16:48:30.051Z,14.4
2022-10-22T16:58:30.100Z,14.3
2022-10-22T17:08:30.991Z,14
2022-10-22T17:18:31.550Z,13.8
2022-10-22T17:28:32.206Z,13.8
2022-10-22T17:38:32.468Z,13.8
2022-10-22T17:48:32.928Z,13.8
2022-10-22T17:58:33.438Z,13.7
2022-10-22T18:08:33.930Z,13.5
2022-10-22T18:18:34.677Z,13.5
2022-10-22T18:28:34.987Z,13.3
2022-10-22T18:38:35.909Z,13.1
2022-10-22T18:48:36.330Z,12.9
2022-10-22T19:08:37.246Z,12.9
2022-10-22T19:18:37.349Z,13
2022-10-22T19:28:37.829Z,13
2022-10-22T19:38:38.405Z,12.9
2022-10-22T19:48:38.966Z,13
2022-10-22T19:58:39.221Z,13
2022-10-22T20:08:39.652Z,13.1
2022-10-22T20:18:40.320Z,13.2
2022-10-22T20:28:40.551Z,13.2
2022-10-22T20:38:41.466Z,13.1
2022-10-22T20:48:41.676Z,13.1
2022-10-22T21:08:42.832Z,13.2
2022-10-22T21:28:43.564Z,13.1
2022-10-22T21:38:44.032Z,13.2
2022-10-22T21:48:44.124Z,13.2
2022-10-22T21:58:44.950Z,13.4
2022-10-22T22:08:45.540Z,13.4
2022-10-22T22:18:46.207Z,13.2
2022-10-22T22:28:47.077Z,13
2022-10-22T22:38:47.816Z,12.7
2022-10-22T22:48:47.935Z,12.7
2022-10-22T22:58:48.096Z,13.1
2022-10-22T23:08:48.777Z,13.2
2022-10-22T23:18:49.064Z,13.3
2022-10-22T23:28:50.031Z,13.4
2022-10-22T23:38:50.308Z,13.5
2022-10-22T23:48:50.710Z,13.5
2022-10-22T23:58:51.251Z,13.4
